Time;durP1;ratioP1;P1;durP2;ratioP2;P2;SDS_P1;SDS_P2;PMS_P1;PMS_P2;Temp;Humidity;BMP_temperature;BMP_pressure;BME280_temperature;BME280_humidity;BME280_pressure;Samples;Min_cycle;Max_cycle;Signal;HPM_P1;HPM_P2
2023/04/05 00:00:43;;;;;;;13.37;7.13;;;0.60;99.90;;;;;;5054382;28;20225;-51
2023/04/05 00:03:10;;;;;;;10.70;7.80;;;0.60;99.90;;;;;;5059088;28;20202;-54
2023/04/05 00:05:37;;;;;;;10.30;7.20;;;0.60;99.90;;;;;;5051382;28;20205;-54
2023/04/05 00:08:07;;;;;;;12.03;7.50;;;0.50;99.90;;;;;;5050042;28;20658;-51
2023/04/05 00:10:57;;;;;;;9.10;7.80;;;0.50;99.90;;;;;;5058990;28;20936;-50
2023/04/05 00:13:24;;;;;;;9.57;6.77;;;0.50;99.90;;;;;;5038228;28;20205;-55
2023/04/05 00:15:51;;;;;;;12.37;7.30;;;0.50;99.90;;;;;;5056240;28;20827;-54
2023/04/05 00:18:22;;;;;;;13.00;7.50;;;0.40;99.90;;;;;;5042604;28;20210;-54
2023/04/05 00:20:51;;;;;;;13.00;7.60;;;0.50;99.90;;;;;;5050880;28;20957;-50
2023/04/05 00:23:17;;;;;;;8.63;6.63;;;0.50;99.90;;;;;;5050629;28;20203;-52
2023/04/05 00:25:45;;;;;;;9.60;6.53;;;0.40;99.90;;;;;;5051910;28;20869;-50
2023/04/05 00:28:13;;;;;;;15.00;7.07;;;0.40;99.90;;;;;;5035901;28;20212;-54
2023/04/05 00:30:40;;;;;;;9.30;6.40;;;0.40;99.90;;;;;;5040053;28;20211;-55
2023/04/05 00:33:08;;;;;;;8.87;6.13;;;0.40;99.90;;;;;;5057634;28;20733;-51
2023/04/05 00:35:56;;;;;;;8.73;5.87;;;0.40;99.90;;;;;;5052321;28;20391;-53
2023/04/05 00:38:24;;;;;;;10.27;5.87;;;0.40;99.90;;;;;;5052269;28;20252;-54
2023/04/05 00:40:50;;;;;;;9.97;6.17;;;0.40;99.90;;;;;;5056973;28;20220;-55
2023/04/05 00:43:19;;;;;;;8.17;5.63;;;0.30;99.90;;;;;;5027357;28;20213;-54
2023/04/05 00:45:47;;;;;;;9.50;6.00;;;0.20;99.90;;;;;;5056827;28;20185;-55
2023/04/05 00:48:14;;;;;;;8.27;6.10;;;0.20;99.90;;;;;;5057132;28;20201;-53
2023/04/05 00:50:42;;;;;;;10.63;6.40;;;0.20;99.90;;;;;;5052626;28;20205;-56
2023/04/05 00:53:09;;;;;;;11.37;7.03;;;0.20;99.90;;;;;;5056507;28;20346;-54
2023/04/05 00:55:36;;;;;;;8.03;6.10;;;0.20;99.90;;;;;;5047764;28;20245;-56
2023/04/05 00:58:03;;;;;;;8.70;5.47;;;0.20;99.90;;;;;;5054195;28;20231;-51
2023/04/05 01:00:32;;;;;;;11.80;7.40;;;0.20;99.90;;;;;;5032697;28;20220;-54
2023/04/05 01:03:02;;;;;;;10.37;6.33;;;0.20;99.90;;;;;;5063784;28;20199;-55
2023/04/05 01:05:36;;;;;;;10.03;6.53;;;0.20;99.90;;;;;;5053327;28;20285;-51
2023/04/05 01:08:12;;;;;;;10.23;6.90;;;0.20;99.90;;;;;;5046779;28;20249;-51
2023/04/05 01:10:46;;;;;;;12.03;6.87;;;0.20;99.90;;;;;;5047692;28;20220;-56
2023/04/05 01:13:15;;;;;;;13.10;7.50;;;0.20;99.90;;;;;;5059336;28;20237;-55
2023/04/05 01:15:43;;;;;;;10.13;6.60;;;0.20;99.90;;;;;;5031460;28;20212;-54
2023/04/05 01:18:10;;;;;;;10.63;6.57;;;0.20;99.90;;;;;;5053881;28;20279;-55
2023/04/05 01:20:43;;;;;;;13.73;7.13;;;0.20;99.90;;;;;;5040314;28;20216;-55
2023/04/05 01:23:36;;;;;;;13.87;7.30;;;0.20;99.90;;;;;;5066278;28;20192;-53
2023/04/05 01:26:31;;;;;;;9.43;5.83;;;0.10;99.90;;;;;;5045678;28;20231;-52
2023/04/05 01:29:34;;;;;;;9.90;4.67;;;0.00;99.90;;;;;;5048928;28;20201;-52
2023/04/05 01:32:14;;;;;;;10.13;6.70;;;0.00;99.90;;;;;;5068585;28;20884;-53
2023/04/05 01:34:49;;;;;;;9.37;5.63;;;0.00;99.90;;;;;;5056875;28;20213;-54
2023/04/05 01:37:22;;;;;;;12.47;7.70;;;-0.10;99.90;;;;;;5053329;28;20228;-54
2023/04/05 01:39:50;;;;;;;11.20;7.47;;;-0.10;99.90;;;;;;5058170;28;20452;-55
2023/04/05 01:42:23;;;;;;;9.33;6.20;;;-0.10;99.90;;;;;;5050549;28;20204;-52
2023/04/05 01:44:50;;;;;;;11.97;6.13;;;-0.10;99.90;;;;;;5058159;28;20276;-51
2023/04/05 01:47:19;;;;;;;11.97;6.27;;;-0.20;99.90;;;;;;5040295;28;20207;-51
2023/04/05 01:49:46;;;;;;;8.40;5.33;;;-0.20;99.90;;;;;;5057592;28;20873;-50
2023/04/05 01:52:13;;;;;;;8.93;5.00;;;-0.20;99.90;;;;;;5062863;28;20250;-51
2023/04/05 01:54:41;;;;;;;10.07;5.80;;;-0.30;99.90;;;;;;5045712;28;21007;-51
2023/04/05 01:57:09;;;;;;;12.60;6.90;;;-0.30;99.90;;;;;;5059054;28;20214;-51
2023/04/05 01:59:36;;;;;;;11.23;7.10;;;-0.30;99.90;;;;;;5053177;28;20702;-54
2023/04/05 02:02:02;;;;;;;11.67;6.30;;;-0.30;99.90;;;;;;5038775;28;20325;-54
2023/04/05 02:04:31;;;;;;;13.53;7.17;;;-0.30;99.90;;;;;;5055831;28;20197;-54
2023/04/05 02:06:57;;;;;;;11.03;6.63;;;-0.30;99.90;;;;;;5048882;28;20922;-53
2023/04/05 02:09:25;;;;;;;13.93;6.47;;;-0.40;99.90;;;;;;5055712;28;20662;-54
2023/04/05 02:11:51;;;;;;;14.00;6.37;;;-0.40;99.90;;;;;;5054677;28;20195;-53
2023/04/05 02:14:19;;;;;;;11.23;6.50;;;-0.40;99.90;;;;;;5056792;28;20230;-54
2023/04/05 02:16:46;;;;;;;11.80;6.20;;;-0.40;99.90;;;;;;5037892;28;22232;-54
2023/04/05 02:19:14;;;;;;;12.77;7.23;;;-0.50;99.90;;;;;;5068554;28;20196;-54
2023/04/05 02:21:45;;;;;;;9.93;7.03;;;-0.50;99.90;;;;;;5055111;28;20189;-51
2023/04/05 02:24:12;;;;;;;11.57;6.50;;;-0.50;99.90;;;;;;5058024;28;20207;-55
2023/04/05 02:26:39;;;;;;;11.60;6.27;;;-0.50;99.90;;;;;;5052394;28;20297;-52
2023/04/05 02:29:05;;;;;;;8.03;5.23;;;-0.40;99.90;;;;;;5057545;28;20201;-55
2023/04/05 02:31:32;;;;;;;9.27;5.70;;;-0.40;99.90;;;;;;5031642;28;20240;-53
2023/04/05 02:34:00;;;;;;;9.33;5.60;;;-0.40;99.90;;;;;;5060184;28;20208;-53
2023/04/05 02:36:27;;;;;;;11.13;6.37;;;-0.40;99.90;;;;;;5047812;28;20586;-54
2023/04/05 02:38:56;;;;;;;9.33;6.03;;;-0.40;99.90;;;;;;5054970;28;20194;-51
2023/04/05 02:41:24;;;;;;;9.83;5.30;;;-0.40;99.90;;;;;;5049687;28;20224;-54
2023/04/05 02:43:52;;;;;;;8.77;4.83;;;-0.60;99.90;;;;;;5048754;28;20249;-50
2023/04/05 02:46:18;;;;;;;10.80;5.30;;;-0.50;99.90;;;;;;5054859;28;20217;-50
2023/04/05 02:48:46;;;;;;;10.10;5.07;;;-0.60;99.90;;;;;;5050689;28;20188;-50
2023/04/05 02:51:15;;;;;;;9.47;5.00;;;-0.60;99.90;;;;;;5061820;28;20215;-50
2023/04/05 02:53:43;;;;;;;9.73;5.13;;;-0.60;99.90;;;;;;5049134;28;20261;-51
2023/04/05 02:56:13;;;;;;;6.53;4.40;;;-0.60;99.90;;;;;;5055490;28;20215;-51
2023/04/05 02:58:43;;;;;;;7.70;4.03;;;-0.60;99.90;;;;;;5043383;28;20242;-53
2023/04/05 03:01:35;;;;;;;6.70;4.13;;;-0.60;99.90;;;;;;5038346;28;20703;-52
2023/04/05 03:04:02;;;;;;;8.13;4.40;;;-0.60;99.90;;;;;;5055039;28;20261;-51
2023/04/05 03:06:31;;;;;;;6.53;3.77;;;-0.60;99.90;;;;;;5045078;28;20658;-54
2023/04/05 03:09:00;;;;;;;7.47;4.60;;;-0.70;99.90;;;;;;5056770;28;20200;-54
2023/04/05 03:11:29;;;;;;;8.37;4.37;;;-0.70;99.90;;;;;;5054922;28;20211;-54
2023/04/05 03:13:59;;;;;;;6.63;4.67;;;-0.70;99.90;;;;;;5057281;28;20213;-52
2023/04/05 03:16:49;;;;;;;10.30;4.17;;;-0.70;99.90;;;;;;5044754;28;20218;-54
2023/04/05 03:19:23;;;;;;;6.13;4.17;;;-0.70;99.90;;;;;;5025295;28;20191;-54
2023/04/05 03:21:54;;;;;;;7.17;4.63;;;-0.70;99.90;;;;;;5054440;28;20208;-50
2023/04/05 03:24:26;;;;;;;6.20;4.53;;;-0.70;99.90;;;;;;5050800;28;20559;-54
2023/04/05 03:27:02;;;;;;;9.83;4.70;;;-0.80;99.90;;;;;;5054885;28;20204;-52
2023/04/05 03:29:32;;;;;;;7.07;4.67;;;-0.80;99.90;;;;;;5050048;28;20775;-54
2023/04/05 03:32:10;;;;;;;5.40;4.33;;;-0.80;99.90;;;;;;5057201;28;20207;-54
2023/04/05 03:34:42;;;;;;;7.70;4.73;;;-0.90;99.90;;;;;;5028987;28;20223;-51
2023/04/05 03:37:11;;;;;;;7.27;4.53;;;-0.80;99.90;;;;;;5058162;28;20264;-52
2023/04/05 03:39:45;;;;;;;8.07;5.17;;;-0.80;99.90;;;;;;5053127;28;20237;-55
2023/04/05 03:42:14;;;;;;;9.30;5.70;;;-0.90;99.90;;;;;;5048904;28;20759;-52
2023/04/05 03:44:42;;;;;;;9.00;5.30;;;-0.90;99.90;;;;;;5050452;28;20209;-55
2023/04/05 03:47:09;;;;;;;8.87;5.03;;;-1.70;99.90;;;;;;5051775;28;20196;-51
2023/04/05 03:49:39;;;;;;;6.43;4.67;;;-0.90;99.90;;;;;;5028451;28;20286;-54
2023/04/05 03:52:07;;;;;;;6.40;5.07;;;-0.90;99.90;;;;;;5050599;28;20696;-55
2023/04/05 03:54:34;;;;;;;8.03;5.13;;;-0.90;99.90;;;;;;5046827;28;20203;-55
2023/04/05 03:57:02;;;;;;;12.13;5.30;;;-0.90;99.90;;;;;;5050409;28;20230;-52
2023/04/05 03:59:32;;;;;;;7.37;5.17;;;-0.90;99.90;;;;;;5050836;28;20297;-56
2023/04/05 04:02:02;;;;;;;8.90;5.30;;;-0.90;99.90;;;;;;5048515;28;20206;-49
2023/04/05 04:04:29;;;;;;;6.10;4.73;;;-0.90;99.90;;;;;;5052011;28;20735;-58
2023/04/05 04:06:56;;;;;;;7.90;5.30;;;-0.90;99.90;;;;;;5040434;28;20199;-53
2023/04/05 04:09:28;;;;;;;8.37;5.43;;;-0.90;99.90;;;;;;5047003;28;20578;-58
2023/04/05 04:11:57;;;;;;;10.23;5.33;;;-0.80;99.90;;;;;;5050635;28;20376;-50
2023/04/05 04:14:24;;;;;;;7.60;4.70;;;-0.80;99.90;;;;;;5047660;28;20195;-60
2023/04/05 04:17:03;;;;;;;9.57;4.77;;;-0.80;99.90;;;;;;5053275;28;20223;-57
2023/04/05 04:19:49;;;;;;;10.47;5.27;;;-0.80;99.90;;;;;;5068379;28;20303;-52
2023/04/05 04:22:39;;;;;;;7.03;4.57;;;-0.80;99.90;;;;;;5029755;28;20288;-53
2023/04/05 04:25:17;;;;;;;8.10;4.80;;;-0.80;99.90;;;;;;5056104;28;20199;-57
2023/04/05 04:28:06;;;;;;;6.80;4.50;;;-0.70;99.90;;;;;;5048674;28;20214;-52
2023/04/05 04:30:47;;;;;;;8.20;5.20;;;-0.70;99.90;;;;;;5062581;28;20223;-50
2023/04/05 04:33:33;;;;;;;6.70;4.50;;;-0.60;99.90;;;;;;5049181;28;20195;-53
2023/04/05 04:36:33;;;;;;;5.83;4.40;;;-0.60;99.90;;;;;;5042712;28;20246;-59
2023/04/05 04:39:15;;;;;;;9.97;5.07;;;-0.50;99.90;;;;;;5057918;28;20217;-57
2023/04/05 04:42:10;;;;;;;9.33;4.60;;;-0.50;99.90;;;;;;5047300;28;20203;-56
2023/04/05 04:44:53;;;;;;;11.30;5.10;;;-0.50;99.90;;;;;;5049731;28;20377;-53
2023/04/05 04:47:30;;;;;;;6.37;4.80;;;-0.40;99.90;;;;;;5049187;28;20199;-59
2023/04/05 04:50:19;;;;;;;10.23;4.63;;;-0.40;99.90;;;;;;5053911;28;20276;-60
2023/04/05 04:52:47;;;;;;;13.47;4.60;;;-0.40;99.90;;;;;;5032422;28;20337;-53
2023/04/05 04:55:14;;;;;;;9.20;5.00;;;-0.40;99.90;;;;;;5044539;28;20206;-58
2023/04/05 04:57:42;;;;;;;7.20;4.70;;;-0.40;99.90;;;;;;5053506;28;20227;-51
2023/04/05 05:00:13;;;;;;;7.37;4.83;;;-0.30;99.90;;;;;;5054098;28;20211;-51
2023/04/05 05:03:03;;;;;;;8.07;5.03;;;-0.30;99.90;;;;;;5048493;28;20598;-51
2023/04/05 05:05:32;;;;;;;9.00;4.70;;;-0.30;99.90;;;;;;5051541;28;20581;-59
2023/04/05 05:07:59;;;;;;;9.53;5.03;;;-0.30;99.90;;;;;;5035183;28;20203;-55
2023/04/05 05:10:26;;;;;;;8.07;5.70;;;-0.20;99.90;;;;;;5057644;28;20229;-60
2023/04/05 05:12:57;;;;;;;11.03;5.23;;;-0.10;99.90;;;;;;5057497;28;20191;-52
2023/04/05 05:15:24;;;;;;;10.60;5.13;;;-0.10;99.90;;;;;;5040397;28;20200;-59
2023/04/05 05:17:52;;;;;;;10.17;5.10;;;0.00;99.90;;;;;;5050191;28;20821;-57
2023/04/05 05:20:19;;;;;;;8.83;5.33;;;0.10;99.90;;;;;;5055778;28;20218;-59
2023/04/05 05:22:50;;;;;;;6.07;4.40;;;0.10;99.90;;;;;;5057119;28;20195;-50
2023/04/05 05:25:17;;;;;;;9.27;4.50;;;0.10;99.90;;;;;;5038630;28;20208;-60
2023/04/05 05:27:48;;;;;;;5.37;4.43;;;0.20;99.90;;;;;;5052933;28;20264;-55
2023/04/05 05:30:15;;;;;;;7.63;4.63;;;0.30;99.90;;;;;;5049727;28;20238;-60
2023/04/05 05:32:43;;;;;;;9.90;5.23;;;0.30;99.90;;;;;;5054228;28;20959;-56
2023/04/05 05:35:10;;;;;;;8.77;5.33;;;0.30;99.90;;;;;;5059113;28;20195;-55
2023/04/05 05:37:37;;;;;;;8.57;5.13;;;0.40;99.90;;;;;;5055764;28;20219;-54
2023/04/05 05:40:07;;;;;;;6.90;4.10;;;0.50;99.90;;;;;;5037371;28;20219;-56
2023/04/05 05:42:34;;;;;;;7.87;5.00;;;0.50;99.90;;;;;;5047256;28;20209;-50
2023/04/05 05:45:04;;;;;;;11.13;5.30;;;0.50;99.90;;;;;;5057892;28;20213;-52
2023/04/05 05:47:32;;;;;;;8.23;5.17;;;0.60;99.90;;;;;;5055143;28;20192;-51
2023/04/05 05:50:00;;;;;;;9.23;5.50;;;0.70;99.90;;;;;;5055059;28;20225;-55
2023/04/05 05:52:49;;;;;;;7.37;4.67;;;0.80;99.90;;;;;;5051788;28;21006;-57
2023/04/05 05:55:17;;;;;;;8.50;5.17;;;0.80;99.90;;;;;;5031006;28;20218;-59
2023/04/05 05:57:45;;;;;;;8.07;5.13;;;0.90;99.90;;;;;;5054141;28;20298;-54
2023/04/05 06:00:13;;;;;;;10.57;5.20;;;1.00;99.90;;;;;;5056255;28;20309;-55
2023/04/05 06:02:41;;;;;;;9.87;5.80;;;1.10;99.90;;;;;;5054634;28;20275;-49
2023/04/05 06:05:08;;;;;;;8.23;5.30;;;1.20;99.90;;;;;;5054471;28;20208;-58
2023/04/05 06:07:36;;;;;;;8.77;4.77;;;1.30;99.90;;;;;;5052718;28;20282;-51
2023/04/05 06:10:04;;;;;;;8.67;5.30;;;1.40;99.90;;;;;;5033891;28;20231;-55
2023/04/05 06:12:32;;;;;;;8.07;4.67;;;1.50;99.90;;;;;;5051308;28;20205;-59
2023/04/05 06:15:01;;;;;;;8.37;4.53;;;1.60;99.90;;;;;;5054461;28;20779;-50
2023/04/05 06:17:50;;;;;;;5.60;4.20;;;1.70;99.90;;;;;;5050106;28;20234;-59
2023/04/05 06:20:18;;;;;;;6.70;3.80;;;1.80;99.90;;;;;;5057705;28;20294;-60
2023/04/05 06:22:45;;;;;;;6.47;4.13;;;2.00;99.90;;;;;;5053378;28;20887;-57
2023/04/05 06:25:12;;;;;;;5.93;3.70;;;2.10;99.90;;;;;;5062184;28;20229;-52
2023/04/05 06:27:40;;;;;;;6.70;3.97;;;2.20;99.90;;;;;;5032145;28;20207;-49
2023/04/05 06:30:08;;;;;;;6.47;3.63;;;2.20;99.90;;;;;;5053662;28;20231;-59
2023/04/05 06:32:35;;;;;;;9.00;4.27;;;2.40;99.90;;;;;;5057354;28;20193;-54
2023/04/05 06:35:02;;;;;;;6.80;3.63;;;2.50;99.90;;;;;;5056552;28;20261;-57
2023/04/05 06:37:30;;;;;;;10.57;3.60;;;2.50;99.90;;;;;;5056556;28;20218;-50
2023/04/05 06:39:57;;;;;;;7.53;3.23;;;2.60;99.90;;;;;;5055069;28;20615;-56
2023/04/05 06:42:25;;;;;;;6.57;3.57;;;1.90;99.90;;;;;;5029224;28;20292;-55
2023/04/05 06:45:03;;;;;;;5.87;3.53;;;2.80;99.90;;;;;;5054875;28;20288;-56
2023/04/05 06:47:51;;;;;;;8.27;3.60;;;2.80;99.90;;;;;;5056605;28;20747;-54
2023/04/05 06:50:19;;;;;;;7.00;3.27;;;2.90;99.90;;;;;;5058016;28;20278;-50
2023/04/05 06:52:46;;;;;;;4.93;3.30;;;2.90;99.90;;;;;;5056596;28;20202;-53
2023/04/05 06:55:13;;;;;;;6.30;3.03;;;2.90;99.90;;;;;;5052645;28;20296;-61
2023/04/05 06:57:41;;;;;;;5.00;3.47;;;3.00;99.90;;;;;;5041338;28;20222;-50
2023/04/05 07:00:11;;;;;;;4.53;3.03;;;3.00;99.90;;;;;;5049987;28;20225;-52
2023/04/05 07:03:00;;;;;;;4.73;2.90;;;3.10;99.90;;;;;;5042739;28;20213;-54
2023/04/05 07:05:28;;;;;;;6.80;2.70;;;3.20;99.90;;;;;;5047423;28;20200;-55
2023/04/05 07:07:54;;;;;;;11.33;3.67;;;3.40;99.90;;;;;;5049852;28;20198;-52
2023/04/05 07:10:40;;;;;;;3.80;2.63;;;3.50;99.90;;;;;;5056863;28;20242;-61
2023/04/05 07:13:08;;;;;;;4.73;3.33;;;3.70;99.90;;;;;;5039641;28;20537;-54
2023/04/05 07:15:36;;;;;;;4.17;2.77;;;3.90;99.90;;;;;;5054179;28;20197;-60
2023/04/05 07:18:03;;;;;;;5.03;3.07;;;4.00;99.90;;;;;;5051672;28;20218;-50
2023/04/05 07:20:29;;;;;;;4.50;2.90;;;4.20;99.90;;;;;;5053300;28;20226;-51
2023/04/05 07:22:57;;;;;;;5.10;2.80;;;4.30;99.90;;;;;;5048876;28;20203;-59
2023/04/05 07:25:24;;;;;;;4.70;3.03;;;4.50;99.90;;;;;;5058040;28;20272;-57
2023/04/05 07:27:51;;;;;;;2.60;2.30;;;4.60;99.90;;;;;;5057634;28;20206;-54
2023/04/05 07:30:18;;;;;;;3.57;2.60;;;4.70;99.90;;;;;;5034512;28;20223;-56
2023/04/05 07:32:46;;;;;;;4.07;2.40;;;4.80;99.90;;;;;;5055917;28;20686;-58
2023/04/05 07:35:13;;;;;;;4.70;2.47;;;4.90;99.90;;;;;;5058974;28;20186;-52
2023/04/05 07:37:40;;;;;;;11.20;2.93;;;5.00;99.90;;;;;;5046063;28;20626;-56
2023/04/05 07:40:09;;;;;;;2.83;2.23;;;5.10;99.90;;;;;;5049962;28;20221;-53
2023/04/05 07:42:36;;;;;;;3.97;2.63;;;5.30;99.90;;;;;;5048697;28;20203;-56
2023/04/05 07:45:04;;;;;;;2.90;2.37;;;5.40;99.90;;;;;;5035189;28;20219;-55
2023/04/05 07:47:32;;;;;;;3.53;2.57;;;5.30;99.90;;;;;;5051783;28;20197;-50
2023/04/05 07:50:01;;;;;;;4.83;2.73;;;5.40;99.90;;;;;;5055022;28;20240;-53
2023/04/05 07:52:27;;;;;;;3.07;2.67;;;5.50;99.90;;;;;;5052330;28;20210;-53
2023/04/05 07:54:55;;;;;;;5.23;2.30;;;5.60;99.90;;;;;;5042632;28;20203;-53
2023/04/05 07:57:22;;;;;;;5.27;2.10;;;5.70;99.90;;;;;;5062032;28;20230;-55
2023/04/05 07:59:51;;;;;;;5.93;2.73;;;5.90;99.90;;;;;;5057402;28;20218;-56
2023/04/05 08:02:18;;;;;;;4.23;2.33;;;6.00;99.90;;;;;;5037096;28;20203;-56
2023/04/05 08:04:45;;;;;;;4.10;2.93;;;6.00;99.90;;;;;;5055103;28;20218;-56
2023/04/05 08:07:14;;;;;;;3.77;2.60;;;6.10;99.90;;;;;;5054462;28;20195;-53
2023/04/05 08:09:41;;;;;;;5.83;2.70;;;6.20;99.90;;;;;;5045661;28;20277;-57
2023/04/05 08:12:10;;;;;;;4.13;2.70;;;6.20;99.90;;;;;;5054809;28;20183;-55
2023/04/05 08:14:36;;;;;;;2.30;1.87;;;6.20;99.90;;;;;;5059153;28;20243;-56
2023/04/05 08:17:03;;;;;;;5.97;3.10;;;6.30;99.90;;;;;;5028051;28;20967;-54
2023/04/05 08:19:31;;;;;;;3.63;2.07;;;6.40;99.90;;;;;;5054099;28;20194;-53
2023/04/05 08:21:58;;;;;;;4.93;2.70;;;6.50;99.90;;;;;;5053227;28;20274;-54
2023/04/05 08:24:26;;;;;;;4.27;2.87;;;6.50;99.90;;;;;;5053830;28;20203;-52
2023/04/05 08:26:53;;;;;;;4.53;2.57;;;6.60;99.90;;;;;;5049648;28;20234;-54
2023/04/05 08:29:19;;;;;;;7.33;2.60;;;6.60;99.90;;;;;;5055699;28;20194;-54
2023/04/05 08:31:46;;;;;;;3.33;2.47;;;6.60;99.90;;;;;;5034683;28;20878;-57
2023/04/05 08:34:13;;;;;;;2.43;2.17;;;6.60;99.90;;;;;;5055825;28;20195;-52
2023/04/05 08:36:40;;;;;;;3.00;2.37;;;6.60;99.90;;;;;;5046439;28;20203;-56
2023/04/05 08:39:06;;;;;;;4.40;2.83;;;6.60;99.90;;;;;;5050290;28;20439;-55
2023/04/05 08:41:40;;;;;;;5.60;2.80;;;6.60;99.80;;;;;;5047770;28;20225;-58
2023/04/05 08:44:10;;;;;;;5.03;2.97;;;6.60;99.80;;;;;;5054830;28;20202;-54
2023/04/05 08:46:37;;;;;;;3.60;2.13;;;6.70;99.90;;;;;;5058685;28;20201;-57
2023/04/05 08:49:06;;;;;;;3.60;2.50;;;6.90;99.10;;;;;;5025722;28;20203;-52
2023/04/05 08:51:33;;;;;;;2.73;2.53;;;6.90;98.80;;;;;;5058764;28;20268;-57
2023/04/05 08:54:00;;;;;;;4.33;2.50;;;7.00;98.00;;;;;;5041006;28;21506;-51
2023/04/05 08:56:30;;;;;;;3.90;2.53;;;7.00;99.90;;;;;;5056137;28;20252;-49
2023/04/05 08:59:03;;;;;;;4.40;2.30;;;7.10;99.90;;;;;;5049936;28;20360;-55
2023/04/05 09:01:31;;;;;;;4.60;2.27;;;7.00;99.90;;;;;;5057085;28;20219;-50
2023/04/05 09:04:01;;;;;;;4.53;3.17;;;7.10;99.90;;;;;;5033923;28;20268;-56
2023/04/05 09:06:29;;;;;;;3.37;2.90;;;7.00;99.90;;;;;;5050133;28;20202;-50
2023/04/05 09:08:57;;;;;;;4.57;2.90;;;7.20;99.90;;;;;;5046781;28;20589;-54
2023/04/05 09:11:25;;;;;;;4.17;3.33;;;7.30;98.90;;;;;;5040836;28;20226;-50
2023/04/05 09:13:52;;;;;;;3.63;2.90;;;7.30;98.70;;;;;;5057957;28;20199;-56
2023/04/05 09:16:20;;;;;;;5.20;3.10;;;7.50;98.50;;;;;;5044993;28;20191;-52
2023/04/05 09:18:48;;;;;;;3.20;2.73;;;7.40;98.40;;;;;;5050001;28;20210;-50
2023/04/05 09:21:16;;;;;;;3.47;3.00;;;7.40;98.20;;;;;;5036353;28;20311;-51
2023/04/05 09:23:52;;;;;;;6.10;3.20;;;7.40;98.30;;;;;;5054374;28;20228;-58
2023/04/05 09:26:21;;;;;;;5.63;3.17;;;7.40;98.50;;;;;;5046831;28;20256;-52
2023/04/05 09:28:50;;;;;;;4.90;2.60;;;7.50;98.60;;;;;;5049858;28;20211;-54
2023/04/05 09:31:32;;;;;;;5.30;3.27;;;7.50;98.80;;;;;;5055319;28;20218;-49
2023/04/05 09:34:01;;;;;;;4.50;3.33;;;7.60;99.10;;;;;;5055832;28;20928;-50
2023/04/05 09:36:31;;;;;;;5.00;3.47;;;;;;;;;;5033142;28;20207;-59
2023/04/05 09:39:08;;;;;;;5.23;3.57;;;7.40;97.80;;;;;;5049338;28;20222;-49
2023/04/05 09:41:36;;;;;;;5.00;3.10;;;7.80;98.70;;;;;;5045008;28;20305;-58
2023/04/05 09:44:03;;;;;;;4.67;3.20;;;7.80;98.20;;;;;;5047463;28;20207;-53
2023/04/05 09:46:33;;;;;;;4.57;2.97;;;7.80;98.00;;;;;;5054422;28;20751;-57
2023/04/05 09:49:02;;;;;;;4.40;2.90;;;7.90;97.90;;;;;;5050224;28;20329;-58
2023/04/05 09:51:33;;;;;;;3.70;3.10;;;7.90;99.90;;;;;;5049521;28;20218;-60
2023/04/05 09:54:02;;;;;;;6.47;3.33;;;8.00;99.90;;;;;;5032613;28;20236;-53
2023/04/05 09:56:30;;;;;;;8.87;2.93;;;8.00;99.90;;;;;;5055786;28;20209;-57
2023/04/05 09:59:01;;;;;;;4.67;3.47;;;8.20;99.90;;;;;;5055453;28;20210;-49
2023/04/05 10:01:32;;;;;;;3.93;3.23;;;8.10;99.90;;;;;;5059524;28;20219;-59
2023/04/05 10:03:59;;;;;;;3.40;3.10;;;8.10;99.90;;;;;;5054597;28;20227;-56
2023/04/05 10:06:36;;;;;;;5.47;3.17;;;8.10;99.90;;;;;;5054113;28;20315;-57
2023/04/05 10:09:04;;;;;;;3.00;2.70;;;8.30;99.90;;;;;;5033433;28;20287;-51
2023/04/05 10:11:32;;;;;;;4.80;3.30;;;8.40;99.90;;;;;;5050366;28;20223;-57
2023/04/05 10:14:02;;;;;;;4.37;3.20;;;8.30;96.90;;;;;;5051356;28;20953;-53
2023/04/05 10:16:33;;;;;;;5.47;2.60;;;8.30;96.70;;;;;;5039764;28;20226;-55
2023/04/05 10:19:04;;;;;;;5.23;2.73;;;8.30;97.20;;;;;;5057994;28;20264;-57
2023/04/05 10:21:35;;;;;;;4.43;3.23;;;8.50;97.50;;;;;;5058975;28;20303;-50
2023/04/05 10:24:08;;;;;;;3.30;3.00;;;8.40;98.20;;;;;;5029390;28;20909;-58
2023/04/05 10:26:41;;;;;;;4.73;3.03;;;8.30;98.30;;;;;;5046134;28;20205;-53
2023/04/05 10:29:15;;;;;;;4.53;2.83;;;8.30;98.00;;;;;;5054661;28;20187;-58
2023/04/05 10:31:51;;;;;;;4.23;2.67;;;8.30;98.70;;;;;;5051339;28;20209;-52
2023/04/05 10:34:27;;;;;;;5.40;3.30;;;8.40;98.60;;;;;;5047526;28;20219;-52
2023/04/05 10:36:57;;;;;;;3.60;2.90;;;;;;;;;;5055228;28;20194;-52
2023/04/05 10:39:28;;;;;;;4.77;3.13;;;8.60;99.90;;;;;;5027448;28;22941;-55
2023/04/05 10:42:00;;;;;;;3.47;2.77;;;8.80;96.50;;;;;;5052985;28;20207;-51
2023/04/05 10:44:32;;;;;;;2.93;2.17;;;8.90;96.60;;;;;;5055089;28;20203;-52
2023/04/05 10:47:01;;;;;;;3.97;2.43;;;8.90;96.10;;;;;;5044937;28;20222;-56
2023/04/05 10:49:34;;;;;;;3.40;2.40;;;8.80;96.00;;;;;;5055816;28;20252;-55
2023/04/05 10:52:03;;;;;;;4.57;2.50;;;8.80;96.10;;;;;;5048212;28;20207;-58
2023/04/05 10:54:32;;;;;;;2.50;2.17;;;8.80;96.00;;;;;;5037351;28;20670;-51
2023/04/05 10:57:01;;;;;;;2.40;2.20;;;8.70;96.10;;;;;;5040784;28;20285;-58
2023/04/05 10:59:28;;;;;;;4.37;2.70;;;8.70;96.20;;;;;;5051848;28;20214;-51
2023/04/05 11:01:57;;;;;;;2.93;2.43;;;8.60;95.70;;;;;;5049678;28;20199;-57
2023/04/05 11:04:25;;;;;;;3.23;2.20;;;8.60;95.70;;;;;;5053305;28;20743;-49
2023/04/05 11:07:11;;;;;;;4.37;2.40;;;8.60;95.60;;;;;;5057166;28;20199;-56
2023/04/05 11:09:39;;;;;;;7.30;2.70;;;8.80;95.80;;;;;;5034123;28;20296;-48
2023/04/05 11:12:07;;;;;;;4.30;2.57;;;9.10;95.30;;;;;;5038878;28;20203;-55
2023/04/05 11:14:36;;;;;;;5.00;2.73;;;9.20;95.00;;;;;;5055151;28;20566;-50
2023/04/05 11:17:03;;;;;;;3.83;2.53;;;9.40;95.20;;;;;;5050191;28;20203;-59
2023/04/05 11:19:51;;;;;;;2.63;2.33;;;9.60;94.50;;;;;;5052882;28;20218;-53
2023/04/05 11:22:27;;;;;;;5.00;2.30;;;9.80;92.70;;;;;;5056688;28;20863;-51
2023/04/05 11:24:56;;;;;;;2.20;1.90;;;9.70;92.50;;;;;;5033019;28;20206;-58
2023/04/05 11:27:28;;;;;;;2.87;2.60;;;9.70;92.60;;;;;;5039879;28;20202;-48
2023/04/05 11:29:55;;;;;;;2.87;2.37;;;9.80;93.10;;;;;;5054078;28;20340;-56
2023/04/05 11:32:23;;;;;;;2.83;2.10;;;9.80;92.80;;;;;;5048537;28;20250;-52
2023/04/05 11:35:05;;;;;;;5.43;2.40;;;9.60;92.70;;;;;;5055565;28;20684;-56
2023/04/05 11:38:07;;;;;;;2.80;1.97;;;9.50;92.90;;;;;;5046459;28;20190;-53
2023/04/05 11:40:35;;;;;;;4.73;2.43;;;9.40;91.90;;;;;;5024405;28;20222;-57
2023/04/05 11:43:06;;;;;;;2.23;2.03;;;9.30;92.20;;;;;;5045442;28;20277;-51
2023/04/05 11:45:34;;;;;;;2.60;1.87;;;9.20;92.00;;;;;;5042232;28;20204;-56
2023/04/05 11:48:05;;;;;;;2.83;2.13;;;9.30;92.40;;;;;;5055576;28;20560;-56
2023/04/05 11:50:35;;;;;;;4.40;2.50;;;9.30;91.60;;;;;;5042992;28;20219;-55
2023/04/05 11:53:09;;;;;;;6.10;3.13;;;9.30;92.30;;;;;;5058247;28;20705;-51
2023/04/05 11:55:37;;;;;;;5.60;2.87;;;9.20;92.40;;;;;;5030080;28;20268;-54
2023/04/05 11:58:12;;;;;;;3.33;2.93;;;9.00;93.40;;;;;;5048719;28;20222;-50
2023/04/05 12:00:39;;;;;;;3.27;2.47;;;9.10;93.90;;;;;;5039544;28;20242;-55
2023/04/05 12:03:06;;;;;;;3.17;2.40;;;9.10;93.80;;;;;;5050552;28;20210;-52
2023/04/05 12:05:49;;;;;;;3.60;2.20;;;9.00;93.70;;;;;;5052472;28;20226;-56
2023/04/05 12:08:18;;;;;;;3.90;2.70;;;9.00;93.80;;;;;;5055054;28;20877;-55
2023/04/05 12:10:45;;;;;;;3.60;2.60;;;9.10;93.90;;;;;;5030695;28;20226;-55
2023/04/05 12:13:11;;;;;;;5.53;2.83;;;9.10;93.50;;;;;;5048918;28;20202;-54
2023/04/05 12:15:40;;;;;;;2.40;2.03;;;9.10;93.50;;;;;;5036871;28;20206;-52
2023/04/05 12:18:14;;;;;;;2.67;2.43;;;9.20;93.60;;;;;;5058720;28;20736;-57
2023/04/05 12:20:44;;;;;;;2.20;2.00;;;9.40;93.50;;;;;;5042124;28;20301;-57
2023/04/05 12:23:12;;;;;;;2.37;2.17;;;9.60;93.30;;;;;;5057940;28;20271;-57
2023/04/05 12:25:41;;;;;;;4.33;2.00;;;9.80;92.70;;;;;;5031163;28;20218;-51
2023/04/05 12:28:08;;;;;;;2.93;2.03;;;9.90;92.50;;;;;;5045816;28;20678;-49
2023/04/05 12:30:37;;;;;;;2.30;2.10;;;10.20;92.30;;;;;;5051129;28;20230;-56
2023/04/05 12:33:08;;;;;;;3.93;2.50;;;10.20;91.70;;;;;;5054239;28;20248;-56
2023/04/05 12:35:35;;;;;;;3.00;1.87;;;10.30;91.70;;;;;;5048396;28;20214;-55
2023/04/05 12:38:04;;;;;;;2.97;2.10;;;10.50;95.30;;;;;;5043986;28;20207;-56
2023/04/05 12:40:34;;;;;;;2.37;2.07;;;10.30;96.50;;;;;;5059471;28;20207;-50
2023/04/05 12:43:03;;;;;;;2.13;1.93;;;10.30;95.10;;;;;;5034896;28;20215;-56
2023/04/05 12:45:30;;;;;;;3.43;1.63;;;10.20;94.20;;;;;;5043712;28;20206;-50
2023/04/05 12:47:58;;;;;;;2.40;1.80;;;10.10;96.70;;;;;;5051293;28;20210;-56
2023/04/05 12:50:27;;;;;;;4.63;2.77;;;10.10;97.40;;;;;;5055117;28;20916;-51
2023/04/05 12:52:58;;;;;;;2.50;2.03;;;10.50;96.00;;;;;;5046744;28;20266;-55
2023/04/05 12:55:26;;;;;;;1.80;1.70;;;10.70;90.60;;;;;;5056274;28;20187;-53
2023/04/05 12:57:58;;;;;;;3.23;1.50;;;10.60;88.60;;;;;;5038837;28;20709;-53
2023/04/05 13:00:26;;;;;;;2.17;1.97;;;10.50;86.40;;;;;;5044001;28;20377;-54
2023/04/05 13:02:55;;;;;;;1.83;1.47;;;10.40;88.70;;;;;;5060414;28;20241;-53
2023/04/05 13:05:23;;;;;;;1.80;1.37;;;10.30;86.80;;;;;;5049304;28;20221;-48
2023/04/05 13:07:50;;;;;;;5.00;1.53;;;10.30;87.00;;;;;;5042239;28;20247;-52
2023/04/05 13:10:17;;;;;;;2.17;1.40;;;10.20;85.40;;;;;;5058944;28;20214;-54